createdAt,value
2023-01-06T00:00:25.130Z,88.73
2023-01-06T00:02:51.933Z,87.54
2023-01-06T00:05:18.676Z,86.31
2023-01-06T00:07:45.355Z,86.68
2023-01-06T00:10:12.114Z,86.92
2023-01-06T00:12:39.555Z,85.71
2023-01-06T00:15:06.716Z,89.54
2023-01-06T00:17:33.663Z,85.56
2023-01-06T00:20:01.646Z,85.77
2023-01-06T00:22:28.297Z,84.65
2023-01-06T00:24:54.951Z,84.60
2023-01-06T00:27:22.018Z,85.35
2023-01-06T00:29:49.926Z,85.28
2023-01-06T00:32:16.852Z,85.17
2023-01-06T00:34:44.056Z,90.10
2023-01-06T00:37:10.726Z,90.24
2023-01-06T00:39:37.456Z,88.10
2023-01-06T00:42:04.149Z,86.94
2023-01-06T00:44:31.630Z,85.61
2023-01-06T00:46:58.406Z,85.32
2023-01-06T00:49:25.567Z,84.94
2023-01-06T00:51:52.738Z,84.54
2023-01-06T00:54:19.945Z,84.29
2023-01-06T00:56:48.232Z,85.44
2023-01-06T00:59:15.855Z,85.00
2023-01-06T01:01:43.206Z,84.76
2023-01-06T01:04:10.495Z,86.11
2023-01-06T01:06:37.582Z,84.15
2023-01-06T01:09:04.768Z,85.32
2023-01-06T01:11:49.975Z,87.12
2023-01-06T01:14:18.028Z,86.23
2023-01-06T01:16:44.793Z,85.23
2023-01-06T01:19:12.445Z,84.61
2023-01-06T01:21:39.719Z,84.96
2023-01-06T01:24:06.537Z,83.52
2023-01-06T01:26:33.495Z,83.99
2023-01-06T01:29:00.705Z,84.58
2023-01-06T01:31:27.554Z,83.80
2023-01-06T01:33:54.391Z,85.32
2023-01-06T01:36:21.136Z,83.66
2023-01-06T01:38:47.918Z,82.68
2023-01-06T01:41:18.928Z,82.19
2023-01-06T01:43:49.970Z,83.31
2023-01-06T01:46:22.112Z,83.22
2023-01-06T01:48:49.302Z,81.87
2023-01-06T01:51:18.103Z,81.51
2023-01-06T01:53:47.957Z,80.75
2023-01-06T01:56:17.443Z,80.29
2023-01-06T01:58:46.283Z,80.39
2023-01-06T02:01:13.225Z,79.78
2023-01-06T02:03:41.151Z,79.87
2023-01-06T02:06:22.100Z,82.43
2023-01-06T02:08:59.545Z,80.46
2023-01-06T02:11:27.294Z,81.62
2023-01-06T02:13:58.145Z,80.79
2023-01-06T02:16:37.899Z,81.53
2023-01-06T02:19:24.179Z,89.71
2023-01-06T02:21:50.874Z,90.59
2023-01-06T02:24:36.269Z,89.91
2023-01-06T02:27:15.268Z,92.12
2023-01-06T02:30:00.929Z,92.71
2023-01-06T02:32:47.846Z,88.83
2023-01-06T02:35:23.845Z,88.77
2023-01-06T02:37:53.600Z,86.81
2023-01-06T02:40:35.596Z,86.20
2023-01-06T02:43:05.482Z,85.18
2023-01-06T02:45:49.090Z,83.78
2023-01-06T02:48:18.647Z,82.87
2023-01-06T02:51:03.769Z,82.14
2023-01-06T02:53:52.997Z,81.87
2023-01-06T02:56:22.402Z,80.99
2023-01-06T02:58:55.038Z,85.13
2023-01-06T03:01:28.211Z,83.62
2023-01-06T03:03:56.352Z,82.25
2023-01-06T03:06:25.915Z,82.31
2023-01-06T03:08:53.766Z,82.28
2023-01-06T03:11:20.852Z,82.84
2023-01-06T03:13:57.062Z,81.78
2023-01-06T03:16:24.240Z,82.71
2023-01-06T03:18:52.543Z,86.61
2023-01-06T03:21:25.630Z,90.54
2023-01-06T03:23:53.236Z,90.36
2023-01-06T03:26:20.048Z,88.71
2023-01-06T03:28:46.809Z,87.19
2023-01-06T03:31:22.606Z,85.90
2023-01-06T03:34:08.570Z,86.39
2023-01-06T03:36:44.697Z,86.11
2023-01-06T03:39:11.356Z,86.24
2023-01-06T03:41:59.801Z,87.09
2023-01-06T03:44:43.256Z,85.71
2023-01-06T03:47:15.880Z,85.05
2023-01-06T03:49:50.981Z,83.89
2023-01-06T03:52:46.799Z,86.97
2023-01-06T03:55:19.149Z,86.23
2023-01-06T03:57:49.079Z,83.85
2023-01-06T04:00:27.301Z,84.37
2023-01-06T04:02:54.350Z,83.43
2023-01-06T04:05:23.546Z,82.34
2023-01-06T04:07:50.426Z,82.08
2023-01-06T04:10:17.895Z,81.50
2023-01-06T04:12:44.851Z,81.01
2023-01-06T04:15:13.216Z,82.35
2023-01-06T04:17:40.734Z,85.93
2023-01-06T04:20:08.274Z,86.63
2023-01-06T04:22:35.365Z,87.39
2023-01-06T04:25:02.194Z,86.63
2023-01-06T04:27:28.910Z,84.98
2023-01-06T04:29:55.984Z,82.11
2023-01-06T04:32:22.615Z,83.38
2023-01-06T04:34:49.344Z,82.61
2023-01-06T04:37:16.305Z,84.61
2023-01-06T04:39:42.974Z,87.59
2023-01-06T04:42:09.764Z,91.17
2023-01-06T04:44:37.532Z,84.20
2023-01-06T04:47:04.316Z,84.08
2023-01-06T04:49:31.043Z,83.98
2023-01-06T04:51:57.784Z,83.72
2023-01-06T04:54:24.523Z,84.02
2023-01-06T04:56:51.296Z,83.96
2023-01-06T04:59:18.194Z,83.55
2023-01-06T05:01:45.022Z,83.19
2023-01-06T05:04:11.862Z,83.05
2023-01-06T05:06:39.726Z,84.38
2023-01-06T05:09:07.200Z,82.81
2023-01-06T05:11:34.235Z,82.24
2023-01-06T05:14:00.988Z,82.62
2023-01-06T05:16:29.174Z,82.58
2023-01-06T05:18:55.886Z,87.89
2023-01-06T05:21:25.066Z,88.08
2023-01-06T05:23:52.194Z,91.92
2023-01-06T05:26:20.246Z,94.19
2023-01-06T05:28:47.193Z,94.59
2023-01-06T05:31:14.024Z,93.96
2023-01-06T05:33:41.258Z,90.25
2023-01-06T05:36:11.859Z,89.24
2023-01-06T05:38:39.465Z,88.54
2023-01-06T05:41:06.503Z,88.13
2023-01-06T05:43:34.024Z,87.70
2023-01-06T05:46:04.738Z,86.81
2023-01-06T05:48:33.049Z,86.12
2023-01-06T05:51:03.901Z,84.89
2023-01-06T05:53:31.304Z,84.24
2023-01-06T05:56:01.889Z,83.49
2023-01-06T05:58:28.607Z,82.93
2023-01-06T06:00:55.393Z,83.02
2023-01-06T06:03:22.193Z,83.13
2023-01-06T06:05:48.985Z,84.21
2023-01-06T06:08:15.765Z,90.22
2023-01-06T06:10:42.544Z,89.60
2023-01-06T06:13:09.392Z,87.14
2023-01-06T06:15:36.433Z,87.30
2023-01-06T06:18:03.348Z,88.03
2023-01-06T06:20:30.536Z,86.49
2023-01-06T06:22:57.247Z,85.90
2023-01-06T06:25:23.938Z,85.94
2023-01-06T06:27:50.593Z,85.30
2023-01-06T06:30:17.716Z,85.26
2023-01-06T06:32:44.423Z,83.44
2023-01-06T06:35:11.125Z,83.40
2023-01-06T06:37:37.823Z,83.56
2023-01-06T06:40:04.876Z,82.64
2023-01-06T06:42:32.091Z,82.15
2023-01-06T06:44:58.764Z,81.82
2023-01-06T06:47:25.452Z,84.14
2023-01-06T06:49:52.175Z,84.64
2023-01-06T06:52:18.961Z,94.10
2023-01-06T06:54:45.702Z,96.26
2023-01-06T06:57:12.483Z,100.00
2023-01-06T06:59:39.165Z,98.87
2023-01-06T07:02:07.401Z,95.94
2023-01-06T07:04:34.215Z,95.44
2023-01-06T07:07:00.902Z,92.95
2023-01-06T07:09:27.645Z,89.16
2023-01-06T07:11:54.284Z,87.25
2023-01-06T07:14:21.032Z,86.06
2023-01-06T07:16:47.729Z,89.01
2023-01-06T07:19:14.412Z,86.20
2023-01-06T07:21:41.133Z,86.12
2023-01-06T07:24:07.883Z,85.67
2023-01-06T07:26:34.645Z,84.70
2023-01-06T07:29:01.281Z,80.93
2023-01-06T07:31:28.018Z,77.33
2023-01-06T07:33:54.761Z,74.09
2023-01-06T07:36:21.571Z,70.17
2023-01-06T07:38:48.254Z,67.08
2023-01-06T07:41:14.951Z,64.72
2023-01-06T07:43:41.762Z,64.15
2023-01-06T07:46:09.549Z,62.67
2023-01-06T07:48:37.115Z,62.64
2023-01-06T07:51:03.959Z,63.46
2023-01-06T07:53:30.775Z,64.51
2023-01-06T07:55:59.642Z,64.72
2023-01-06T07:58:26.376Z,64.08
2023-01-06T08:00:53.120Z,63.04
2023-01-06T08:03:19.936Z,62.53
2023-01-06T08:05:46.672Z,63.46
2023-01-06T08:08:13.466Z,62.73
2023-01-06T08:10:43.324Z,63.27
2023-01-06T08:13:11.068Z,61.75
2023-01-06T08:15:38.508Z,60.95
2023-01-06T08:18:05.302Z,60.64
2023-01-06T08:20:34.179Z,64.11
2023-01-06T08:23:01.776Z,66.25
2023-01-06T08:25:28.528Z,67.09
2023-01-06T08:27:55.229Z,67.81
2023-01-06T08:30:22.168Z,67.29
2023-01-06T08:32:49.387Z,71.53
2023-01-06T08:35:16.787Z,73.45
2023-01-06T08:37:43.537Z,71.24
2023-01-06T08:40:11.189Z,69.83
2023-01-06T08:42:37.945Z,69.10
2023-01-06T08:45:05.638Z,71.10
2023-01-06T08:47:32.282Z,71.66
2023-01-06T08:49:59.589Z,74.64
2023-01-06T08:52:26.225Z,72.60
2023-01-06T08:54:53.071Z,72.50
2023-01-06T08:57:19.753Z,71.54
2023-01-06T08:59:46.427Z,73.91
2023-01-06T09:02:13.324Z,73.11
2023-01-06T09:04:40.323Z,73.89
2023-01-06T09:07:07.100Z,72.71
2023-01-06T09:09:33.907Z,68.72
2023-01-06T09:12:00.565Z,70.86
2023-01-06T09:14:27.508Z,70.23
2023-01-06T09:16:54.529Z,70.51
2023-01-06T09:19:21.381Z,69.77
2023-01-06T09:21:48.103Z,72.20
2023-01-06T09:24:15.463Z,69.29
2023-01-06T09:26:42.210Z,68.75
2023-01-06T09:29:08.969Z,68.55
2023-01-06T09:31:35.791Z,68.10
2023-01-06T09:34:02.507Z,69.11
2023-01-06T09:36:29.264Z,71.37
2023-01-06T09:38:55.993Z,70.95
2023-01-06T09:41:28.872Z,70.46
2023-01-06T09:44:09.388Z,70.50
2023-01-06T09:46:37.713Z,70.36
2023-01-06T09:49:07.275Z,67.77
2023-01-06T09:51:35.896Z,69.48
2023-01-06T09:54:14.914Z,68.04
2023-01-06T09:56:43.978Z,65.75
2023-01-06T09:59:30.935Z,64.26
2023-01-06T10:02:00.038Z,65.54
2023-01-06T10:04:28.286Z,65.17
2023-01-06T10:07:04.593Z,63.39
2023-01-06T10:09:34.410Z,65.27
2023-01-06T10:12:10.230Z,66.41
2023-01-06T10:14:39.992Z,66.96
2023-01-06T10:17:25.603Z,63.98
2023-01-06T10:20:10.866Z,62.39
2023-01-06T10:22:40.436Z,64.10
2023-01-06T10:25:16.737Z,61.54
2023-01-06T10:27:49.009Z,58.36
2023-01-06T10:30:21.047Z,54.68
2023-01-06T10:32:48.737Z,52.60
2023-01-06T10:35:17.810Z,51.60
2023-01-06T10:37:46.380Z,50.34
2023-01-06T10:40:25.659Z,50.89
2023-01-06T10:43:03.805Z,48.43
2023-01-06T10:45:47.645Z,46.80
2023-01-06T10:48:17.154Z,46.84
2023-01-06T10:50:44.154Z,47.10
2023-01-06T10:53:13.999Z,47.50
2023-01-06T10:55:46.345Z,48.35
2023-01-06T10:58:12.997Z,48.30
2023-01-06T11:00:56.163Z,48.48
2023-01-06T11:03:33.266Z,46.46
2023-01-06T11:06:14.409Z,46.19
2023-01-06T11:08:41.377Z,47.55
2023-01-06T11:11:27.397Z,48.39
2023-01-06T11:13:57.470Z,47.14
2023-01-06T11:16:35.975Z,47.65
2023-01-06T11:19:05.101Z,47.34
2023-01-06T11:21:42.180Z,45.48
2023-01-06T11:24:19.813Z,45.96
2023-01-06T11:26:51.613Z,43.70
2023-01-06T11:29:19.959Z,43.90
2023-01-06T11:31:50.142Z,44.70
2023-01-06T11:34:22.371Z,44.64
2023-01-06T11:36:49.100Z,45.13
2023-01-06T11:39:30.450Z,44.62
2023-01-06T11:42:02.330Z,45.78
2023-01-06T11:44:33.400Z,46.23
2023-01-06T11:47:20.636Z,46.11
2023-01-06T11:49:47.349Z,45.63
2023-01-06T11:52:22.257Z,45.04
2023-01-06T11:55:09.362Z,44.43
2023-01-06T11:57:40.907Z,44.17
2023-01-06T12:00:27.206Z,42.58
2023-01-06T12:03:03.477Z,42.55
2023-01-06T12:05:41.485Z,43.16
2023-01-06T12:08:19.030Z,44.10
2023-01-06T12:10:48.641Z,43.33
2023-01-06T12:13:15.454Z,43.37
2023-01-06T12:15:44.447Z,43.35
2023-01-06T12:18:14.120Z,42.12
2023-01-06T12:20:44.252Z,42.47
2023-01-06T12:23:13.997Z,40.74
2023-01-06T12:25:48.388Z,42.92
2023-01-06T12:28:15.055Z,42.13
2023-01-06T12:30:51.405Z,41.79
2023-01-06T12:33:23.627Z,41.54
2023-01-06T12:35:53.849Z,41.59
2023-01-06T12:38:52.731Z,40.83
2023-01-06T12:41:19.437Z,41.80
2023-01-06T12:43:52.295Z,40.27
2023-01-06T12:46:26.580Z,41.26
2023-01-06T12:48:57.271Z,39.47
2023-01-06T12:51:32.817Z,39.39
2023-01-06T12:53:59.480Z,39.69
2023-01-06T12:56:43.347Z,39.46
2023-01-06T12:59:10.013Z,39.24
2023-01-06T13:01:39.893Z,39.55
2023-01-06T13:04:19.328Z,38.99
2023-01-06T13:07:04.892Z,38.57
2023-01-06T13:09:39.673Z,38.81
2023-01-06T13:12:06.454Z,38.81
2023-01-06T13:14:39.164Z,39.85
2023-01-06T13:17:11.592Z,37.98
2023-01-06T13:19:38.230Z,37.92
2023-01-06T13:22:07.521Z,37.90
2023-01-06T13:24:52.968Z,37.07
2023-01-06T13:27:31.542Z,37.43
2023-01-06T13:30:08.050Z,39.10
2023-01-06T13:32:34.691Z,39.50
2023-01-06T13:35:01.457Z,41.26
2023-01-06T13:37:28.524Z,41.16
2023-01-06T13:39:55.219Z,42.27
2023-01-06T13:42:35.974Z,40.34
2023-01-06T13:45:05.607Z,41.54
2023-01-06T13:47:32.460Z,41.58
2023-01-06T13:49:59.753Z,41.33
2023-01-06T13:52:28.653Z,41.31
2023-01-06T13:54:59.403Z,42.08
2023-01-06T13:57:46.283Z,41.30
2023-01-06T14:00:39.382Z,42.03
2023-01-06T14:03:14.630Z,44.11
2023-01-06T14:05:41.433Z,43.48
2023-01-06T14:08:15.312Z,43.51
2023-01-06T14:10:43.361Z,44.08
2023-01-06T14:13:30.361Z,45.21
2023-01-06T14:15:58.894Z,44.92
2023-01-06T14:18:32.443Z,44.58
2023-01-06T14:21:04.861Z,46.09
2023-01-06T14:23:32.586Z,46.69
2023-01-06T14:25:59.381Z,48.42
2023-01-06T14:28:26.204Z,49.19
2023-01-06T14:31:13.139Z,48.06
2023-01-06T14:33:42.774Z,47.49
2023-01-06T14:36:16.892Z,47.98
2023-01-06T14:38:45.909Z,49.02
2023-01-06T14:41:22.555Z,49.56
2023-01-06T14:44:03.135Z,48.82
2023-01-06T14:46:32.138Z,49.70
2023-01-06T14:49:03.739Z,49.61
2023-01-06T14:51:31.658Z,49.60
2023-01-06T14:54:04.555Z,50.90
2023-01-06T14:56:32.077Z,51.20
2023-01-06T14:59:08.225Z,50.78
2023-01-06T15:01:37.509Z,50.72
2023-01-06T15:04:05.032Z,50.87
2023-01-06T15:06:32.299Z,50.97
2023-01-06T15:09:17.534Z,51.01
2023-01-06T15:11:45.611Z,53.19
2023-01-06T15:14:24.791Z,53.29
2023-01-06T15:16:51.882Z,54.57
2023-01-06T15:19:18.611Z,54.66
2023-01-06T15:21:46.842Z,54.63
2023-01-06T15:24:24.175Z,55.12
2023-01-06T15:26:51.983Z,55.32
2023-01-06T15:29:20.036Z,56.31
2023-01-06T15:31:48.535Z,57.71
2023-01-06T15:34:17.982Z,56.64
2023-01-06T15:36:45.754Z,57.21
2023-01-06T15:39:15.099Z,57.33
2023-01-06T15:41:42.540Z,57.92
2023-01-06T15:44:29.372Z,60.74
2023-01-06T15:46:58.288Z,62.29
2023-01-06T15:49:26.988Z,61.46
2023-01-06T15:51:58.607Z,61.65
2023-01-06T15:54:27.642Z,58.91
2023-01-06T15:56:54.370Z,60.04
2023-01-06T15:59:22.257Z,60.92
2023-01-06T16:01:50.613Z,60.59
2023-01-06T16:04:17.958Z,59.90
2023-01-06T16:06:45.013Z,63.17
2023-01-06T16:09:21.226Z,63.54
2023-01-06T16:12:01.017Z,63.46
2023-01-06T16:14:32.592Z,64.13
2023-01-06T16:17:23.467Z,61.62
2023-01-06T16:19:53.228Z,62.38
2023-01-06T16:22:29.459Z,63.81
2023-01-06T16:24:56.219Z,62.69
2023-01-06T16:27:24.007Z,62.30
2023-01-06T16:30:07.337Z,62.09
2023-01-06T16:32:38.827Z,61.42
2023-01-06T16:35:13.657Z,60.99
2023-01-06T16:37:40.458Z,61.67
2023-01-06T16:40:07.987Z,62.34
2023-01-06T16:42:41.140Z,62.55
2023-01-06T16:45:13.520Z,62.38
2023-01-06T16:47:41.176Z,63.26
2023-01-06T16:50:17.141Z,61.69
2023-01-06T16:52:44.986Z,61.73
2023-01-06T16:55:12.860Z,63.87
2023-01-06T16:57:40.013Z,61.78
2023-01-06T17:00:12.011Z,62.39
2023-01-06T17:02:39.069Z,62.59
2023-01-06T17:05:16.552Z,68.34
2023-01-06T17:07:43.368Z,65.91
2023-01-06T17:10:14.652Z,65.78
2023-01-06T17:13:19.961Z,68.79
2023-01-06T17:15:47.272Z,68.82
2023-01-06T17:18:30.119Z,67.10
2023-01-06T17:21:26.076Z,67.43
2023-01-06T17:24:05.102Z,67.30
2023-01-06T17:26:31.810Z,65.66
2023-01-06T17:28:59.977Z,65.44
2023-01-06T17:31:30.660Z,65.82
2023-01-06T17:33:58.978Z,66.33
2023-01-06T17:36:30.181Z,66.71
2023-01-06T17:38:56.890Z,65.59
2023-01-06T17:41:23.791Z,64.58
2023-01-06T17:43:50.606Z,65.70
2023-01-06T17:46:23.408Z,65.41
2023-01-06T17:48:57.392Z,65.58
2023-01-06T17:51:24.173Z,65.76
2023-01-06T17:54:09.308Z,65.64
2023-01-06T17:56:36.066Z,67.23
2023-01-06T17:59:07.751Z,66.40
2023-01-06T18:01:35.700Z,65.72
2023-01-06T18:04:06.696Z,66.56
2023-01-06T18:06:39.231Z,66.05
2023-01-06T18:09:05.927Z,66.92
2023-01-06T18:11:34.722Z,67.15
2023-01-06T18:14:28.288Z,68.32
2023-01-06T18:16:57.037Z,69.59
2023-01-06T18:19:24.551Z,69.76
2023-01-06T18:21:51.727Z,68.44
2023-01-06T18:24:25.202Z,66.81
2023-01-06T18:26:56.502Z,67.72
2023-01-06T18:29:37.003Z,67.05
2023-01-06T18:32:19.757Z,65.67
2023-01-06T18:34:47.138Z,65.62
2023-01-06T18:37:14.143Z,64.61
2023-01-06T18:39:43.111Z,65.56
2023-01-06T18:42:28.434Z,66.08
2023-01-06T18:45:07.521Z,66.75
2023-01-06T18:47:35.788Z,66.56
2023-01-06T18:50:20.233Z,68.20
2023-01-06T18:52:50.930Z,66.67
2023-01-06T18:55:17.596Z,68.04
2023-01-06T18:57:46.257Z,66.89
2023-01-06T19:00:29.899Z,66.68
2023-01-06T19:03:16.910Z,66.27
2023-01-06T19:05:44.268Z,66.02
2023-01-06T19:08:15.009Z,65.56
2023-01-06T19:10:43.840Z,65.64
2023-01-06T19:13:25.015Z,65.23
2023-01-06T19:15:52.346Z,64.63
2023-01-06T19:18:21.325Z,68.21
2023-01-06T19:20:48.096Z,77.78
2023-01-06T19:23:19.683Z,79.31
2023-01-06T19:25:52.196Z,84.21
2023-01-06T19:28:24.135Z,79.76
2023-01-06T19:30:57.431Z,83.07
2023-01-06T19:33:24.159Z,81.25
2023-01-06T19:36:02.633Z,79.65
2023-01-06T19:38:30.588Z,80.45
2023-01-06T19:40:59.775Z,79.09
2023-01-06T19:43:28.198Z,75.17
2023-01-06T19:45:54.958Z,87.57
2023-01-06T19:48:37.455Z,81.62
2023-01-06T19:51:19.352Z,81.26
2023-01-06T19:53:48.629Z,77.85
2023-01-06T19:56:19.969Z,80.40
2023-01-06T19:58:52.318Z,80.16
2023-01-06T20:01:19.101Z,77.77
2023-01-06T20:03:47.076Z,76.23
2023-01-06T20:06:14.666Z,75.79
2023-01-06T20:08:44.048Z,74.62
2023-01-06T20:11:11.654Z,74.11
2023-01-06T20:13:38.437Z,74.36
2023-01-06T20:16:05.572Z,73.22
2023-01-06T20:18:33.039Z,72.74
2023-01-06T20:20:59.750Z,75.99
2023-01-06T20:23:26.505Z,73.62
2023-01-06T20:25:53.202Z,72.21
2023-01-06T20:28:19.959Z,72.87
2023-01-06T20:30:46.755Z,73.51
2023-01-06T20:33:13.615Z,72.92
2023-01-06T20:35:40.304Z,72.18
2023-01-06T20:38:07.086Z,72.27
2023-01-06T20:40:33.804Z,72.78
2023-01-06T20:43:00.556Z,73.42
2023-01-06T20:45:27.756Z,72.71
2023-01-06T20:47:54.518Z,70.77
2023-01-06T20:50:21.324Z,69.41
2023-01-06T20:52:48.096Z,69.68
2023-01-06T20:55:15.058Z,71.04
2023-01-06T20:57:42.187Z,70.14
2023-01-06T21:00:11.129Z,71.39
2023-01-06T21:02:38.114Z,71.94
2023-01-06T21:05:05.898Z,71.00
2023-01-06T21:07:33.577Z,70.34
2023-01-06T21:10:00.628Z,69.89
2023-01-06T21:12:27.331Z,69.63
2023-01-06T21:14:54.067Z,68.67
2023-01-06T21:17:20.829Z,69.26
2023-01-06T21:19:48.174Z,69.52
2023-01-06T21:22:14.946Z,69.08
2023-01-06T21:24:41.739Z,69.47
2023-01-06T21:27:10.874Z,69.06
2023-01-06T21:29:37.777Z,68.81
2023-01-06T21:32:04.654Z,67.74
2023-01-06T21:34:31.520Z,68.40
2023-01-06T21:36:58.239Z,67.47
2023-01-06T21:39:24.947Z,67.14
2023-01-06T21:42:10.237Z,67.14
2023-01-06T21:44:37.093Z,67.49
2023-01-06T21:47:04.159Z,70.23
2023-01-06T21:49:31.127Z,69.86
2023-01-06T21:51:58.565Z,69.67
2023-01-06T21:54:25.224Z,69.36
2023-01-06T21:56:51.965Z,68.99
2023-01-06T21:59:18.741Z,69.07
2023-01-06T22:01:45.571Z,70.98
2023-01-06T22:04:12.385Z,73.29
2023-01-06T22:06:40.298Z,70.93
2023-01-06T22:09:08.055Z,71.50
2023-01-06T22:11:35.984Z,71.18
2023-01-06T22:14:02.815Z,72.94
2023-01-06T22:16:29.534Z,72.28
2023-01-06T22:18:57.547Z,71.51
2023-01-06T22:21:25.079Z,71.00
2023-01-06T22:23:52.975Z,70.74
2023-01-06T22:26:19.732Z,70.65
2023-01-06T22:28:46.431Z,70.15
2023-01-06T22:31:13.152Z,70.27
2023-01-06T22:33:39.942Z,71.11
2023-01-06T22:36:07.016Z,76.04
2023-01-06T22:38:33.935Z,80.77
2023-01-06T22:41:00.787Z,76.45
2023-01-06T22:43:27.536Z,75.65
2023-01-06T22:45:55.118Z,75.54
2023-01-06T22:48:21.901Z,75.42
2023-01-06T22:50:55.730Z,74.40
2023-01-06T22:53:22.438Z,73.33
2023-01-06T22:55:58.191Z,72.42
2023-01-06T22:58:25.175Z,71.89
2023-01-06T23:00:52.089Z,73.76
2023-01-06T23:03:19.119Z,76.19
2023-01-06T23:05:53.980Z,74.72
2023-01-06T23:08:20.834Z,74.34
2023-01-06T23:10:47.601Z,73.90
2023-01-06T23:13:14.381Z,73.15
2023-01-06T23:15:41.143Z,72.68
2023-01-06T23:18:07.991Z,72.24
2023-01-06T23:20:34.690Z,71.58
2023-01-06T23:23:01.339Z,71.09
2023-01-06T23:25:28.008Z,70.82
2023-01-06T23:27:54.696Z,70.73
2023-01-06T23:30:21.378Z,70.32
2023-01-06T23:32:48.072Z,70.83
2023-01-06T23:35:14.820Z,72.56
2023-01-06T23:37:41.754Z,80.50
2023-01-06T23:40:08.804Z,76.95
2023-01-06T23:42:40.821Z,78.15
2023-01-06T23:45:14.439Z,77.63
2023-01-06T23:47:41.481Z,76.14
2023-01-06T23:50:08.960Z,75.53
2023-01-06T23:52:35.627Z,75.25
2023-01-06T23:55:02.380Z,74.88
2023-01-06T23:57:29.110Z,74.32
2023-01-06T23:59:55.842Z,73.73
